createdAt,value
2023-04-22T00:02:55.950Z,99800.47
2023-04-22T00:07:59.062Z,99798.78
2023-04-22T00:13:00.720Z,99805.03
2023-04-22T00:18:02.325Z,99808.09
2023-04-22T00:23:05.418Z,99812.28
2023-04-22T00:28:07.118Z,99803.13
2023-04-22T00:33:08.794Z,99807.69
2023-04-22T00:38:11.875Z,99796.88
2023-04-22T00:43:14.131Z,99800.75
2023-04-22T00:48:15.777Z,99792.13
2023-04-22T00:53:18.806Z,99797.53
2023-04-22T00:58:21.422Z,99801.97
2023-04-22T01:03:23.866Z,99800.34
2023-04-22T01:08:28.809Z,99798.22
2023-04-22T01:13:30.601Z,99800.56
2023-04-22T01:18:33.047Z,99794.06
2023-04-22T01:23:36.506Z,99788.78
2023-04-22T01:28:38.672Z,99803.94
2023-04-22T01:33:40.369Z,99792.44
2023-04-22T01:38:43.594Z,99785.47
2023-04-22T01:43:45.446Z,99787.69
2023-04-22T01:48:47.088Z,99778.56
2023-04-22T01:53:50.833Z,99785.34
2023-04-22T01:58:52.492Z,99780.19
2023-04-22T02:03:54.357Z,99772.97
2023-04-22T02:08:57.423Z,99781.03
2023-04-22T02:13:59.101Z,99785.72
2023-04-22T02:19:00.757Z,99782.56
2023-04-22T02:24:04.119Z,99788.53
2023-04-22T02:29:05.774Z,99798.81
2023-04-22T02:34:07.454Z,99794.91
2023-04-22T02:39:10.592Z,99798.06
2023-04-22T02:44:12.283Z,99793.22
2023-04-22T02:49:13.910Z,99781.00
2023-04-22T02:54:17.055Z,99779.34
2023-04-22T02:59:18.680Z,99788.53
2023-04-22T03:04:20.428Z,99787.81
2023-04-22T03:09:23.517Z,99780.31
2023-04-22T03:14:25.317Z,99787.41
2023-04-22T03:19:27.033Z,99784.34
2023-04-22T03:24:30.005Z,99789.44
2023-04-22T03:29:31.719Z,99791.25
2023-04-22T03:34:34.604Z,99792.19
2023-04-22T03:39:39.299Z,99786.47
2023-04-22T03:44:41.208Z,99781.25
2023-04-22T03:49:42.954Z,99794.28
2023-04-22T03:54:45.991Z,99778.59
2023-04-22T03:59:47.616Z,99781.50
2023-04-22T04:04:49.627Z,99768.91
2023-04-22T04:09:52.887Z,99765.28
2023-04-22T04:14:54.617Z,99771.09
2023-04-22T04:19:56.318Z,99771.25
2023-04-22T04:24:59.333Z,99759.44
2023-04-22T04:30:00.956Z,99747.25
2023-04-22T04:35:02.647Z,99746.59
2023-04-22T04:40:07.313Z,99732.16
2023-04-22T04:45:09.444Z,99734.66
2023-04-22T04:50:11.495Z,99747.13
2023-04-22T04:55:14.657Z,99737.22
2023-04-22T05:00:16.629Z,99757.69
2023-04-22T05:05:18.317Z,99770.72
2023-04-22T05:10:21.539Z,99761.31
2023-04-22T05:15:23.150Z,99769.41
2023-04-22T05:20:24.955Z,99770.81
2023-04-22T05:25:27.936Z,99785.09
2023-04-22T05:30:29.689Z,99788.47
2023-04-22T05:35:31.391Z,99779.56
2023-04-22T05:40:34.487Z,99767.50
2023-04-22T05:45:36.339Z,99758.34
2023-04-22T05:50:37.934Z,99752.28
2023-04-22T05:55:41.123Z,99756.81
2023-04-22T06:00:42.773Z,99754.59
2023-04-22T06:05:44.576Z,99758.34
2023-04-22T06:10:47.603Z,99750.59
2023-04-22T06:15:51.097Z,99749.41
2023-04-22T06:20:52.881Z,99743.75
2023-04-22T06:25:56.049Z,99740.16
2023-04-22T06:30:59.538Z,99737.34
2023-04-22T06:36:05.618Z,99739.56
2023-04-22T06:41:11.830Z,99743.72
2023-04-22T06:46:13.478Z,99726.63
2023-04-22T06:51:15.384Z,99720.34
2023-04-22T06:56:18.877Z,99720.97
2023-04-22T07:01:20.614Z,99726.91
2023-04-22T07:06:22.318Z,99721.63
2023-04-22T07:11:25.424Z,99719.00
2023-04-22T07:16:27.339Z,99719.00
2023-04-22T07:21:29.129Z,99710.22
2023-04-22T07:26:32.449Z,99711.09
2023-04-22T07:31:35.647Z,99704.53
2023-04-22T07:36:37.393Z,99699.31
2023-04-22T07:41:40.509Z,99705.66
2023-04-22T07:46:42.494Z,99700.63
2023-04-22T07:51:44.509Z,99691.09
2023-04-22T07:56:47.654Z,99687.91
2023-04-22T08:01:49.278Z,99703.28
2023-04-22T08:06:50.997Z,99687.66
2023-04-22T08:11:54.207Z,99686.94
2023-04-22T08:16:55.981Z,99683.81
2023-04-22T08:21:57.636Z,99689.69
2023-04-22T08:27:00.825Z,99673.47
2023-04-22T08:32:03.020Z,99671.50
2023-04-22T08:37:04.983Z,99668.31
2023-04-22T08:42:08.198Z,99670.47
2023-04-22T08:47:11.189Z,99659.56
2023-04-22T08:52:16.030Z,99657.75
2023-04-22T08:57:19.756Z,99666.97
2023-04-22T09:02:23.339Z,99646.03
2023-04-22T09:07:27.313Z,99647.19
2023-04-22T09:12:30.345Z,99646.31
2023-04-22T09:17:33.293Z,99638.59
2023-04-22T09:22:39.604Z,99635.31
2023-04-22T09:27:42.889Z,99631.47
2023-04-22T09:32:52.011Z,99627.97
2023-04-22T09:37:53.949Z,99615.47
2023-04-22T09:42:58.793Z,99625.72
2023-04-22T09:48:02.849Z,99617.59
2023-04-22T09:53:07.077Z,99616.13
2023-04-22T09:58:12.022Z,99612.28
2023-04-22T10:03:13.638Z,99611.34
2023-04-22T10:08:16.745Z,99612.38
2023-04-22T10:13:20.149Z,99622.97
2023-04-22T10:18:24.329Z,99615.78
2023-04-22T10:23:26.089Z,99616.41
2023-04-22T10:28:29.326Z,99606.66
2023-04-22T10:33:38.089Z,99611.72
2023-04-22T10:38:41.334Z,99608.72
2023-04-22T10:43:46.336Z,99613.97
2023-04-22T10:48:48.029Z,99587.84
2023-04-22T10:53:49.685Z,99604.09
2023-04-22T10:58:52.712Z,99592.47
2023-04-22T11:03:54.572Z,99599.19
2023-04-22T11:09:09.043Z,99593.41
2023-04-22T11:14:12.593Z,99581.78
2023-04-22T11:19:14.190Z,99591.50
2023-04-22T11:24:18.303Z,99581.53
2023-04-22T11:29:21.302Z,99576.38
2023-04-22T11:34:24.977Z,99571.22
2023-04-22T11:39:35.225Z,99572.84
2023-04-22T11:44:38.701Z,99576.34
2023-04-22T11:49:40.487Z,99566.69
2023-04-22T11:54:42.229Z,99569.72
2023-04-22T11:59:57.075Z,99574.09
2023-04-22T12:04:59.479Z,99565.84
2023-04-22T12:10:01.187Z,99569.34
2023-04-22T12:15:13.662Z,99570.53
2023-04-22T12:20:15.677Z,99569.31
2023-04-22T12:25:18.574Z,99577.19
2023-04-22T12:30:21.741Z,99581.91
2023-04-22T12:35:23.360Z,99588.09
2023-04-22T12:40:25.098Z,99599.00
2023-04-22T12:45:28.183Z,99589.69
2023-04-22T12:50:30.073Z,99589.69
2023-04-22T12:55:32.880Z,99588.59
2023-04-22T13:00:35.888Z,99592.31
2023-04-22T13:05:37.564Z,99600.94
2023-04-22T13:10:39.237Z,99591.47
2023-04-22T13:15:42.514Z,99588.91
2023-04-22T13:20:44.320Z,99607.81
2023-04-22T13:25:45.933Z,99600.88
2023-04-22T13:30:48.998Z,99597.50
2023-04-22T13:35:50.644Z,99609.84
2023-04-22T13:40:52.278Z,99612.56
2023-04-22T13:45:55.365Z,99611.59
2023-04-22T13:50:57.124Z,99609.41
2023-04-22T13:55:58.790Z,99611.84
2023-04-22T14:01:01.770Z,99611.53
2023-04-22T14:06:03.593Z,99603.91
2023-04-22T14:11:06.845Z,99606.78
2023-04-22T14:16:10.039Z,99621.72
2023-04-22T14:21:12.498Z,99624.31
2023-04-22T14:26:14.223Z,99626.25
2023-04-22T14:31:17.322Z,99624.50
2023-04-22T14:36:19.001Z,99622.63
2023-04-22T14:41:20.746Z,99607.88
2023-04-22T14:46:23.708Z,99611.22
2023-04-22T14:51:25.378Z,99596.78
2023-04-22T14:56:26.991Z,99611.06
2023-04-22T15:01:33.862Z,99612.09
2023-04-22T15:06:35.509Z,99605.69
2023-04-22T15:11:37.161Z,99603.28
2023-04-22T15:16:40.213Z,99601.34
2023-04-22T15:21:41.847Z,99611.31
2023-04-22T15:26:43.531Z,99603.66
2023-04-22T15:31:47.152Z,99607.38
2023-04-22T15:36:49.152Z,99602.34
2023-04-22T15:41:50.913Z,99599.69
2023-04-22T15:46:54.077Z,99593.22
2023-04-22T15:51:55.700Z,99603.28
2023-04-22T15:56:57.335Z,99593.72
2023-04-22T16:02:00.723Z,99593.88
2023-04-22T16:07:02.483Z,99603.69
2023-04-22T16:12:04.283Z,99600.56
2023-04-22T16:17:07.383Z,99602.16
2023-04-22T16:22:09.017Z,99598.56
2023-04-22T16:27:10.704Z,99599.47
2023-04-22T16:32:13.790Z,99603.59
2023-04-22T16:37:15.517Z,99596.38
2023-04-22T16:42:17.205Z,99600.00
2023-04-22T16:47:20.234Z,99608.13
2023-04-22T16:52:21.847Z,99603.09
2023-04-22T16:57:23.605Z,99602.75
2023-04-22T17:02:26.807Z,99602.84
2023-04-22T17:07:28.776Z,99613.28
2023-04-22T17:12:30.389Z,99608.59
2023-04-22T17:17:33.411Z,99615.06
2023-04-22T17:22:35.056Z,99621.03
2023-04-22T17:27:36.677Z,99625.25
2023-04-22T17:32:39.687Z,99627.44
2023-04-22T17:37:41.325Z,99625.84
2023-04-22T17:42:46.304Z,99637.31
2023-04-22T17:47:49.541Z,99638.56
2023-04-22T17:52:51.444Z,99638.31
2023-04-22T17:57:53.064Z,99647.34
2023-04-22T18:02:56.438Z,99648.88
2023-04-22T18:07:58.231Z,99651.09
2023-04-22T18:12:59.875Z,99663.44
2023-04-22T18:18:02.853Z,99673.34
2023-04-22T18:23:04.523Z,99675.97
2023-04-22T18:28:06.199Z,99677.28
2023-04-22T18:33:09.416Z,99688.28
2023-04-22T18:38:11.064Z,99693.38
2023-04-22T18:43:12.729Z,99696.22
2023-04-22T18:48:15.816Z,99708.72
2023-04-22T18:53:17.420Z,99715.88
2023-04-22T18:58:19.067Z,99718.09
2023-04-22T19:03:22.249Z,99719.72
2023-04-22T19:08:24.011Z,99724.63
2023-04-22T19:13:29.642Z,99722.47
2023-04-22T19:18:33.231Z,99720.34
2023-04-22T19:23:38.077Z,99723.16
2023-04-22T19:28:39.782Z,99729.84
2023-04-22T19:33:42.990Z,99720.69
2023-04-22T19:38:44.670Z,99721.66
2023-04-22T19:43:46.455Z,99729.13
2023-04-22T19:48:50.175Z,99728.88
2023-04-22T19:53:54.219Z,99731.72
2023-04-22T19:58:56.269Z,99739.56
2023-04-22T20:04:00.348Z,99740.03
2023-04-22T20:09:02.369Z,99740.59
2023-04-22T20:14:04.853Z,99727.31
2023-04-22T20:19:08.242Z,99737.59
2023-04-22T20:24:12.868Z,99731.25
2023-04-22T20:29:15.085Z,99727.13
2023-04-22T20:34:18.624Z,99730.13
2023-04-22T20:39:22.675Z,99730.66
2023-04-22T20:44:24.436Z,99723.16
2023-04-22T20:49:27.514Z,99719.19
2023-04-22T20:54:29.556Z,99720.66
2023-04-22T20:59:34.815Z,99717.69
2023-04-22T21:04:38.254Z,99717.72
2023-04-22T21:09:40.325Z,99707.91
2023-04-22T21:14:43.722Z,99714.06
2023-04-22T21:19:49.796Z,99710.22
2023-04-22T21:24:52.597Z,99712.38
2023-04-22T21:29:54.776Z,99716.25
2023-04-22T21:34:57.819Z,99716.72
2023-04-22T21:39:59.604Z,99722.75
2023-04-22T21:45:01.269Z,99728.38
2023-04-22T21:50:05.132Z,99716.28
2023-04-22T21:55:07.198Z,99714.47
2023-04-22T22:00:09.955Z,99717.63
2023-04-22T22:05:13.785Z,99718.94
2023-04-22T22:10:17.590Z,99726.72
2023-04-22T22:15:19.321Z,99716.28
2023-04-22T22:20:22.386Z,99718.94
2023-04-22T22:25:24.324Z,99721.81
2023-04-22T22:30:26.124Z,99721.97
2023-04-22T22:35:29.478Z,99720.31
2023-04-22T22:40:31.331Z,99726.94
2023-04-22T22:45:33.399Z,99719.78
2023-04-22T22:50:36.489Z,99723.13
2023-04-22T22:55:38.188Z,99719.16
2023-04-22T23:00:39.866Z,99729.13
2023-04-22T23:05:43.208Z,99735.59
2023-04-22T23:10:44.846Z,99739.06
2023-04-22T23:15:46.517Z,99738.72
2023-04-22T23:20:50.878Z,99740.06
2023-04-22T23:25:53.090Z,99730.28
2023-04-22T23:30:55.717Z,99728.78
2023-04-22T23:36:00.699Z,99729.13
2023-04-22T23:41:02.350Z,99730.94
2023-04-22T23:46:04.331Z,99734.28
2023-04-22T23:51:07.579Z,99729.94
2023-04-22T23:56:10.449Z,99729.97
